createdAt,value
2023-05-13T00:01:32.367Z,1.83
2023-05-13T00:06:39.323Z,2.30
2023-05-13T00:11:43.445Z,2.30
2023-05-13T00:16:48.462Z,2.88
2023-05-13T00:22:00.182Z,2.92
2023-05-13T00:27:04.786Z,2.53
2023-05-13T00:32:11.752Z,2.60
2023-05-13T00:37:15.354Z,2.80
2023-05-13T00:42:23.392Z,2.53
2023-05-13T00:47:37.725Z,2.42
2023-05-13T00:52:47.525Z,2.75
2023-05-13T00:57:58.450Z,2.25
2023-05-13T01:03:12.242Z,2.45
2023-05-13T01:08:22.195Z,2.90
2023-05-13T01:13:43.529Z,3.05
2023-05-13T01:18:53.977Z,2.72
2023-05-13T01:24:11.579Z,2.70
2023-05-13T01:29:31.049Z,2.28
2023-05-13T01:34:40.161Z,2.65
2023-05-13T01:39:48.141Z,3.17
2023-05-13T01:44:53.439Z,2.63
2023-05-13T01:50:09.816Z,2.80
2023-05-13T01:55:27.943Z,2.45
2023-05-13T02:00:35.584Z,3.00
2023-05-13T02:05:41.081Z,2.95
2023-05-13T02:10:56.484Z,2.80
2023-05-13T02:16:00.201Z,2.65
2023-05-13T02:21:11.379Z,2.90
2023-05-13T02:26:16.419Z,2.75
2023-05-13T02:31:53.165Z,3.03
2023-05-13T02:36:58.999Z,2.72
2023-05-13T02:42:05.225Z,2.50
2023-05-13T02:47:25.929Z,2.47
2023-05-13T02:52:30.551Z,2.40
2023-05-13T02:57:38.042Z,2.42
2023-05-13T03:02:42.767Z,2.30
2023-05-13T03:07:47.654Z,2.78
2023-05-13T03:12:54.712Z,2.80
2023-05-13T03:18:29.050Z,2.67
2023-05-13T03:23:40.913Z,2.50
2023-05-13T03:28:46.426Z,2.83
2023-05-13T03:33:50.253Z,2.63
2023-05-13T03:38:54.209Z,2.80
2023-05-13T03:44:00.136Z,2.47
2023-05-13T03:49:04.427Z,2.40
2023-05-13T03:54:07.878Z,2.67
2023-05-13T03:59:12.693Z,2.30
2023-05-13T04:04:16.359Z,1.90
2023-05-13T04:09:21.389Z,2.40
2023-05-13T04:14:26.323Z,2.30
2023-05-13T04:19:29.932Z,2.63
2023-05-13T04:24:33.276Z,2.30
2023-05-13T04:29:39.167Z,3.25
2023-05-13T04:34:42.566Z,2.20
2023-05-13T04:39:49.391Z,1.98
2023-05-13T04:44:56.868Z,1.80
2023-05-13T04:50:02.414Z,2.13
2023-05-13T04:55:08.096Z,2.13
2023-05-13T05:00:16.574Z,2.15
2023-05-13T05:05:20.292Z,2.10
2023-05-13T05:10:23.960Z,2.30
2023-05-13T05:15:29.948Z,2.08
2023-05-13T05:20:33.433Z,1.70
2023-05-13T05:25:38.282Z,2.00
2023-05-13T05:30:43.368Z,1.85
2023-05-13T05:35:47.219Z,1.98
2023-05-13T05:40:50.611Z,2.00
2023-05-13T05:45:56.262Z,1.85
2023-05-13T05:50:59.762Z,1.95
2023-05-13T05:56:03.057Z,2.08
2023-05-13T06:01:08.169Z,1.77
2023-05-13T06:06:13.834Z,1.95
2023-05-13T06:11:17.634Z,1.63
2023-05-13T06:16:23.292Z,1.83
2023-05-13T06:21:28.600Z,2.15
2023-05-13T06:26:31.972Z,2.17
2023-05-13T06:31:37.248Z,2.40
2023-05-13T06:36:42.028Z,2.10
2023-05-13T06:41:45.922Z,2.17
2023-05-13T06:46:52.604Z,1.92
2023-05-13T06:51:57.043Z,1.70
2023-05-13T06:57:00.662Z,2.03
2023-05-13T07:02:06.288Z,2.58
2023-05-13T07:07:13.312Z,1.85
2023-05-13T07:12:17.955Z,2.03
2023-05-13T07:17:24.883Z,2.00
2023-05-13T07:22:28.633Z,1.88
2023-05-13T07:27:33.085Z,2.15
2023-05-13T07:32:39.940Z,1.90
2023-05-13T07:37:43.859Z,2.03
2023-05-13T07:42:53.255Z,2.25
2023-05-13T07:47:59.555Z,2.40
2023-05-13T07:53:04.398Z,2.20
2023-05-13T07:58:23.762Z,2.72
2023-05-13T08:03:28.619Z,2.72
2023-05-13T08:08:34.352Z,2.80
2023-05-13T08:13:40.649Z,2.33
2023-05-13T08:18:47.561Z,2.67
2023-05-13T08:23:52.430Z,3.00
2023-05-13T08:28:57.456Z,2.85
2023-05-13T08:34:02.401Z,2.90
2023-05-13T08:39:08.179Z,3.30
2023-05-13T08:44:14.404Z,3.10
2023-05-13T08:49:21.807Z,3.80
2023-05-13T08:54:27.318Z,4.28
2023-05-13T08:59:37.290Z,3.70
2023-05-13T09:04:44.628Z,3.72
2023-05-13T09:09:48.438Z,3.45
2023-05-13T09:14:54.961Z,4.50
2023-05-13T09:20:09.258Z,3.70
2023-05-13T09:25:16.916Z,3.33
2023-05-13T09:30:22.002Z,3.00
2023-05-13T09:35:27.793Z,3.10
2023-05-13T09:40:32.774Z,4.10
2023-05-13T09:45:37.044Z,3.40
2023-05-13T09:50:50.360Z,3.45
2023-05-13T09:55:56.308Z,3.42
2023-05-13T10:01:01.281Z,3.75
2023-05-13T10:06:07.203Z,3.33
2023-05-13T10:11:13.084Z,3.20
2023-05-13T10:16:18.692Z,3.05
2023-05-13T10:21:25.650Z,2.97
2023-05-13T10:26:34.550Z,3.63
2023-05-13T10:31:39.822Z,2.95
2023-05-13T10:37:05.488Z,4.30
2023-05-13T10:42:37.741Z,3.20
2023-05-13T10:47:42.131Z,2.50
2023-05-13T10:52:49.934Z,2.58
2023-05-13T10:58:11.270Z,2.55
2023-05-13T11:03:31.008Z,2.30
2023-05-13T11:08:43.621Z,3.00
2023-05-13T11:13:47.469Z,2.13
2023-05-13T11:18:52.310Z,2.33
2023-05-13T11:24:00.460Z,2.22
2023-05-13T11:29:06.927Z,2.50
2023-05-13T11:34:11.591Z,2.35
2023-05-13T11:39:18.907Z,2.30
2023-05-13T11:44:25.442Z,2.60
2023-05-13T11:49:36.890Z,2.72
2023-05-13T11:54:48.911Z,2.80
2023-05-13T11:59:54.046Z,3.03
2023-05-13T12:05:01.618Z,1.92
2023-05-13T12:10:08.408Z,1.95
2023-05-13T12:15:14.451Z,2.40
2023-05-13T12:20:19.420Z,2.13
2023-05-13T12:25:46.984Z,2.03
2023-05-13T12:30:54.685Z,2.05
2023-05-13T12:36:17.780Z,2.17
2023-05-13T12:41:26.440Z,2.38
2023-05-13T12:46:30.336Z,2.10
2023-05-13T12:51:34.341Z,2.08
2023-05-13T12:56:40.232Z,2.13
2023-05-13T13:01:44.002Z,1.77
2023-05-13T13:06:48.832Z,2.10
2023-05-13T13:11:53.596Z,2.00
2023-05-13T13:17:05.703Z,2.65
2023-05-13T13:22:09.202Z,2.15
2023-05-13T13:27:25.332Z,2.08
2023-05-13T13:32:29.956Z,3.28
2023-05-13T13:37:38.351Z,1.85
2023-05-13T13:42:51.270Z,2.22
2023-05-13T13:47:59.156Z,2.42
2023-05-13T13:53:02.707Z,3.20
2023-05-13T13:58:07.486Z,2.40
2023-05-13T14:03:20.049Z,2.25
2023-05-13T14:08:23.752Z,3.10
2023-05-13T14:13:28.652Z,2.13
2023-05-13T14:18:32.106Z,2.88
2023-05-13T14:23:35.603Z,2.10
2023-05-13T14:28:40.344Z,2.35
2023-05-13T14:33:43.694Z,2.42
2023-05-13T14:38:59.076Z,2.83
2023-05-13T14:44:06.258Z,2.80
2023-05-13T14:49:10.001Z,2.78
2023-05-13T14:54:15.670Z,2.92
2023-05-13T14:59:20.476Z,3.70
2023-05-13T15:04:28.128Z,2.72
2023-05-13T15:09:33.866Z,2.30
2023-05-13T15:14:38.791Z,2.63
2023-05-13T15:19:42.011Z,2.97
2023-05-13T15:24:45.537Z,4.22
2023-05-13T15:29:50.404Z,2.63
2023-05-13T15:34:59.376Z,2.47
2023-05-13T15:40:05.589Z,3.70
2023-05-13T15:45:12.845Z,4.03
2023-05-13T15:50:22.230Z,4.22
2023-05-13T15:55:30.680Z,2.92
2023-05-13T16:00:35.505Z,3.00
2023-05-13T16:05:41.891Z,3.80
2023-05-13T16:10:46.573Z,2.58
2023-05-13T16:15:55.952Z,2.90
2023-05-13T16:21:00.634Z,3.60
2023-05-13T16:26:04.372Z,3.10
2023-05-13T16:31:10.177Z,3.88
2023-05-13T16:36:13.478Z,3.53
2023-05-13T16:41:18.876Z,3.47
2023-05-13T16:46:23.695Z,4.75
2023-05-13T16:51:27.112Z,4.03
2023-05-13T16:56:31.403Z,3.80
2023-05-13T17:01:38.099Z,4.35
2023-05-13T17:06:41.576Z,6.40
2023-05-13T17:11:46.108Z,6.78
2023-05-13T17:16:53.019Z,7.82
2023-05-13T17:21:57.044Z,5.53
2023-05-13T17:27:02.439Z,5.47
2023-05-13T17:32:08.159Z,5.78
2023-05-13T17:37:12.616Z,4.45
2023-05-13T17:42:15.974Z,5.65
2023-05-13T17:47:24.127Z,4.13
2023-05-13T17:52:27.684Z,2.95
2023-05-13T17:57:34.084Z,3.28
2023-05-13T18:02:40.518Z,6.85
2023-05-13T18:07:44.064Z,6.88
2023-05-13T18:12:48.193Z,4.13
2023-05-13T18:17:56.116Z,3.03
2023-05-13T18:23:00.213Z,3.58
2023-05-13T18:28:05.113Z,3.05
2023-05-13T18:33:18.347Z,3.33
2023-05-13T18:38:29.702Z,3.38
2023-05-13T18:43:34.122Z,3.33
2023-05-13T18:48:39.371Z,5.63
2023-05-13T18:53:44.045Z,3.15
2023-05-13T18:58:48.690Z,2.65
2023-05-13T19:03:54.065Z,3.28
2023-05-13T19:09:00.499Z,3.13
2023-05-13T19:14:04.305Z,2.83
2023-05-13T19:19:11.365Z,3.03
2023-05-13T19:24:15.952Z,3.42
2023-05-13T19:29:24.430Z,3.70
2023-05-13T19:34:31.140Z,3.17
2023-05-13T19:39:35.017Z,3.88
2023-05-13T19:44:38.710Z,4.40
2023-05-13T19:50:01.413Z,4.38
2023-05-13T19:55:05.650Z,3.58
2023-05-13T20:00:12.850Z,3.92
2023-05-13T20:05:26.961Z,3.97
2023-05-13T20:10:30.346Z,4.63
2023-05-13T20:15:36.112Z,3.85
2023-05-13T20:20:47.108Z,4.90
2023-05-13T20:25:56.895Z,4.93
2023-05-13T20:31:10.720Z,4.38
2023-05-13T20:36:16.703Z,4.22
2023-05-13T20:41:26.360Z,5.05
2023-05-13T20:46:32.004Z,4.72
2023-05-13T20:51:39.552Z,4.65
2023-05-13T20:56:46.236Z,5.47
2023-05-13T21:01:52.707Z,8.30
2023-05-13T21:06:58.657Z,8.35
2023-05-13T21:12:02.367Z,7.18
2023-05-13T21:17:05.973Z,6.05
2023-05-13T21:22:13.372Z,6.25
2023-05-13T21:27:22.837Z,5.65
2023-05-13T21:32:27.956Z,5.80
2023-05-13T21:37:39.556Z,5.85
2023-05-13T21:42:47.503Z,5.55
2023-05-13T21:48:11.163Z,5.82
2023-05-13T21:53:39.905Z,7.00
2023-05-13T22:04:15.118Z,6.97
2023-05-13T22:09:20.375Z,7.13
2023-05-13T22:14:24.082Z,6.88
2023-05-13T22:19:29.184Z,9.70
2023-05-13T22:24:33.954Z,6.20
2023-05-13T22:29:37.494Z,7.45
2023-05-13T22:34:41.806Z,6.20
2023-05-13T22:39:47.911Z,7.50
2023-05-13T22:44:58.723Z,6.90
2023-05-13T22:50:02.316Z,7.18
2023-05-13T22:55:08.802Z,5.53
2023-05-13T23:00:13.452Z,6.63
2023-05-13T23:05:27.447Z,7.82
2023-05-13T23:10:38.103Z,5.72
2023-05-13T23:15:41.633Z,6.20
2023-05-13T23:20:50.860Z,6.53
2023-05-13T23:26:05.352Z,6.55
2023-05-13T23:31:10.095Z,6.80
2023-05-13T23:36:15.869Z,6.82
2023-05-13T23:41:21.867Z,7.88
2023-05-13T23:46:32.059Z,7.15
2023-05-13T23:51:37.143Z,7.30
2023-05-13T23:56:46.871Z,6.43
